sensor_id;sensor_type;location;lat;lon;timestamp;pressure;altitude;pressure_sealevel;temperature;humidity
64243;BME280;50573;51.512;5.386;2022-09-21T00:00:19;102497.69;;;9.04;100.00
64243;BME280;50573;51.512;5.386;2022-09-21T00:10:23;102492.50;;;8.72;100.00
64243;BME280;50573;51.512;5.386;2022-09-21T00:20:28;102510.75;;;8.49;100.00
64243;BME280;50573;51.512;5.386;2022-09-21T00:30:31;102496.88;;;8.44;100.00
64243;BME280;50573;51.512;5.386;2022-09-21T00:40:36;102506.19;;;8.42;100.00
64243;BME280;50573;51.512;5.386;2022-09-21T00:50:43;102517.19;;;8.36;100.00
64243;BME280;50573;51.512;5.386;2022-09-21T01:00:50;102513.63;;;8.31;100.00
64243;BME280;50573;51.512;5.386;2022-09-21T01:11:09;102516.81;;;8.24;100.00
64243;BME280;50573;51.512;5.386;2022-09-21T01:21:21;102510.56;;;8.16;100.00
64243;BME280;50573;51.512;5.386;2022-09-21T01:31:30;102511.28;;;8.12;100.00
64243;BME280;50573;51.512;5.386;2022-09-21T01:41:36;102512.97;;;8.11;100.00
64243;BME280;50573;51.512;5.386;2022-09-21T01:51:45;102501.00;;;8.12;100.00
64243;BME280;50573;51.512;5.386;2022-09-21T02:01:52;102506.09;;;8.10;100.00
64243;BME280;50573;51.512;5.386;2022-09-21T02:11:58;102501.75;;;8.09;100.00
64243;BME280;50573;51.512;5.386;2022-09-21T02:22:07;102508.50;;;8.04;100.00
64243;BME280;50573;51.512;5.386;2022-09-21T02:32:18;102513.06;;;7.87;100.00
64243;BME280;50573;51.512;5.386;2022-09-21T02:42:27;102501.31;;;7.68;100.00
64243;BME280;50573;51.512;5.386;2022-09-21T02:52:33;102500.91;;;7.55;100.00
64243;BME280;50573;51.512;5.386;2022-09-21T03:02:38;102509.78;;;7.39;100.00
64243;BME280;50573;51.512;5.386;2022-09-21T03:12:43;102512.06;;;7.30;100.00
64243;BME280;50573;51.512;5.386;2022-09-21T03:22:46;102512.28;;;7.12;100.00
64243;BME280;50573;51.512;5.386;2022-09-21T03:32:52;102516.84;;;6.97;100.00
64243;BME280;50573;51.512;5.386;2022-09-21T03:42:56;102521.56;;;6.84;100.00
64243;BME280;50573;51.512;5.386;2022-09-21T03:53:01;102526.06;;;6.67;100.00
64243;BME280;50573;51.512;5.386;2022-09-21T04:03:04;102526.41;;;6.54;100.00
64243;BME280;50573;51.512;5.386;2022-09-21T04:13:08;102531.25;;;6.46;100.00
64243;BME280;50573;51.512;5.386;2022-09-21T04:23:11;102532.00;;;6.44;100.00
64243;BME280;50573;51.512;5.386;2022-09-21T04:33:16;102530.97;;;6.39;100.00
64243;BME280;50573;51.512;5.386;2022-09-21T04:43:19;102534.81;;;6.27;100.00
64243;BME280;50573;51.512;5.386;2022-09-21T04:53:24;102539.53;;;6.17;100.00
64243;BME280;50573;51.512;5.386;2022-09-21T05:03:27;102545.09;;;6.06;100.00
64243;BME280;50573;51.512;5.386;2022-09-21T05:13:33;102544.06;;;6.01;100.00
64243;BME280;50573;51.512;5.386;2022-09-21T05:23:36;102554.31;;;6.01;100.00
64243;BME280;50573;51.512;5.386;2022-09-21T05:33:45;102554.44;;;6.04;100.00
64243;BME280;50573;51.512;5.386;2022-09-21T05:43:50;102572.34;;;6.03;100.00
64243;BME280;50573;51.512;5.386;2022-09-21T05:53:59;102569.34;;;6.13;100.00
64243;BME280;50573;51.512;5.386;2022-09-21T06:04:08;102576.91;;;6.31;100.00
64243;BME280;50573;51.512;5.386;2022-09-21T06:14:14;102594.63;;;6.46;100.00
64243;BME280;50573;51.512;5.386;2022-09-21T06:24:17;102596.75;;;6.79;100.00
64243;BME280;50573;51.512;5.386;2022-09-21T06:34:21;102607.66;;;7.18;100.00
64243;BME280;50573;51.512;5.386;2022-09-21T06:44:24;102610.53;;;7.52;100.00
64243;BME280;50573;51.512;5.386;2022-09-21T06:54:30;102591.63;;;7.76;100.00
64243;BME280;50573;51.512;5.386;2022-09-21T07:04:33;102602.41;;;8.15;100.00
64243;BME280;50573;51.512;5.386;2022-09-21T07:14:37;102595.84;;;8.51;100.00
64243;BME280;50573;51.512;5.386;2022-09-21T07:24:41;102600.56;;;8.93;100.00
64243;BME280;50573;51.512;5.386;2022-09-21T07:34:45;102582.75;;;9.32;100.00
64243;BME280;50573;51.512;5.386;2022-09-21T07:44:49;102575.94;;;9.68;100.00
64243;BME280;50573;51.512;5.386;2022-09-21T07:55:06;102569.09;;;10.03;100.00
64243;BME280;50573;51.512;5.386;2022-09-21T08:05:10;102568.44;;;10.47;100.00
64243;BME280;50573;51.512;5.386;2022-09-21T08:15:14;102546.97;;;10.91;100.00
64243;BME280;50573;51.512;5.386;2022-09-21T08:25:38;102556.34;;;11.30;96.43
64243;BME280;50573;51.512;5.386;2022-09-21T08:35:50;102558.06;;;11.78;95.93
64243;BME280;50573;51.512;5.386;2022-09-21T08:45:54;102563.06;;;12.20;90.36
64243;BME280;50573;51.512;5.386;2022-09-21T08:55:59;102557.38;;;12.44;88.39
64243;BME280;50573;51.512;5.386;2022-09-21T09:06:07;102566.31;;;12.64;82.47
64243;BME280;50573;51.512;5.386;2022-09-21T09:16:18;102573.53;;;12.87;79.76
64243;BME280;50573;51.512;5.386;2022-09-21T09:26:28;102573.94;;;13.23;79.23
64243;BME280;50573;51.512;5.386;2022-09-21T09:36:35;102570.91;;;13.59;78.91
64243;BME280;50573;51.512;5.386;2022-09-21T09:47:04;102573.94;;;14.12;75.70
64243;BME280;50573;51.512;5.386;2022-09-21T09:57:11;102573.28;;;14.44;70.80
64243;BME280;50573;51.512;5.386;2022-09-21T10:07:17;102560.63;;;15.22;67.85
64243;BME280;50573;51.512;5.386;2022-09-21T10:17:23;102556.34;;;15.61;64.33
64243;BME280;50573;51.512;5.386;2022-09-21T10:27:28;102555.50;;;15.67;56.37
64243;BME280;50573;51.512;5.386;2022-09-21T10:37:34;102546.81;;;15.93;60.69
64243;BME280;50573;51.512;5.386;2022-09-21T10:47:41;102542.50;;;15.84;63.11
64243;BME280;50573;51.512;5.386;2022-09-21T10:57:47;102536.38;;;16.10;61.46
64243;BME280;50573;51.512;5.386;2022-09-21T11:07:54;102545.06;;;16.04;59.75
64243;BME280;50573;51.512;5.386;2022-09-21T11:18:05;102538.13;;;15.94;57.18
64243;BME280;50573;51.512;5.386;2022-09-21T11:28:18;102538.84;;;16.68;56.05
64243;BME280;50573;51.512;5.386;2022-09-21T11:38:35;102534.56;;;16.41;55.77
64243;BME280;50573;51.512;5.386;2022-09-21T11:48:53;102529.41;;;16.16;57.49
64243;BME280;50573;51.512;5.386;2022-09-21T11:59:12;102518.16;;;15.99;57.22
64243;BME280;50573;51.512;5.386;2022-09-21T12:09:43;102509.44;;;15.51;53.30
64243;BME280;50573;51.512;5.386;2022-09-21T12:19:57;102503.34;;;15.75;54.45
64243;BME280;50573;51.512;5.386;2022-09-21T12:30:09;102480.69;;;16.26;54.70
64243;BME280;50573;51.512;5.386;2022-09-21T12:40:18;102466.47;;;16.97;52.47
64243;BME280;50573;51.512;5.386;2022-09-21T12:50:30;102472.63;;;16.76;52.38
64243;BME280;50573;51.512;5.386;2022-09-21T13:00:43;102463.91;;;16.81;51.08
64243;BME280;50573;51.512;5.386;2022-09-21T13:10:55;102449.25;;;16.54;51.29
64243;BME280;50573;51.512;5.386;2022-09-21T13:21:14;102453.72;;;16.26;51.69
64243;BME280;50573;51.512;5.386;2022-09-21T13:31:40;102438.72;;;16.73;51.26
64243;BME280;50573;51.512;5.386;2022-09-21T13:41:46;102439.63;;;16.65;51.57
64243;BME280;50573;51.512;5.386;2022-09-21T13:52:06;102439.63;;;16.64;50.35
64243;BME280;50573;51.512;5.386;2022-09-21T14:02:27;102430.25;;;16.27;52.43
64243;BME280;50573;51.512;5.386;2022-09-21T14:12:38;102417.22;;;16.13;52.21
64243;BME280;50573;51.512;5.386;2022-09-21T14:22:46;102417.22;;;16.12;54.82
64243;BME280;50573;51.512;5.386;2022-09-21T14:32:50;102399.84;;;16.15;54.04
64243;BME280;50573;51.512;5.386;2022-09-21T14:42:59;102398.69;;;16.72;52.04
64243;BME280;50573;51.512;5.386;2022-09-21T14:53:29;102388.91;;;17.02;50.36
64243;BME280;50573;51.512;5.386;2022-09-21T15:03:55;102382.31;;;17.62;48.45
64243;BME280;50573;51.512;5.386;2022-09-21T15:14:14;102365.94;;;17.43;49.17
64243;BME280;50573;51.512;5.386;2022-09-21T15:24:26;102361.09;;;17.01;49.94
64243;BME280;50573;51.512;5.386;2022-09-21T15:34:30;102355.88;;;16.95;52.91
64243;BME280;50573;51.512;5.386;2022-09-21T15:44:37;102351.59;;;16.81;52.95
64243;BME280;50573;51.512;5.386;2022-09-21T15:54:44;102353.56;;;16.48;54.33
64243;BME280;50573;51.512;5.386;2022-09-21T16:04:52;102352.94;;;16.08;55.90
64243;BME280;50573;51.512;5.386;2022-09-21T16:14:59;102344.31;;;15.79;56.49
64243;BME280;50573;51.512;5.386;2022-09-21T16:25:21;102347.81;;;15.61;58.55
64243;BME280;50573;51.512;5.386;2022-09-21T16:35:26;102353.09;;;15.34;58.07
64243;BME280;50573;51.512;5.386;2022-09-21T16:45:31;102361.78;;;15.09;59.62
64243;BME280;50573;51.512;5.386;2022-09-21T16:55:34;102365.25;;;14.79;62.62
64243;BME280;50573;51.512;5.386;2022-09-21T17:05:40;102360.81;;;14.44;64.52
64243;BME280;50573;51.512;5.386;2022-09-21T17:15:56;102367.63;;;14.11;66.91
64243;BME280;50573;51.512;5.386;2022-09-21T17:26:02;102364.88;;;13.76;68.74
64243;BME280;50573;51.512;5.386;2022-09-21T17:36:11;102367.25;;;13.42;71.40
64243;BME280;50573;51.512;5.386;2022-09-21T17:46:21;102372.16;;;13.08;71.94
64243;BME280;50573;51.512;5.386;2022-09-21T17:56:35;102371.03;;;12.78;74.24
64243;BME280;50573;51.512;5.386;2022-09-21T18:06:44;102366.34;;;12.44;74.86
64243;BME280;50573;51.512;5.386;2022-09-21T18:16:59;102383.16;;;12.05;76.30
64243;BME280;50573;51.512;5.386;2022-09-21T18:27:08;102385.22;;;11.70;77.94
64243;BME280;50573;51.512;5.386;2022-09-21T18:37:17;102388.16;;;11.36;79.89
64243;BME280;50573;51.512;5.386;2022-09-21T18:47:29;102392.03;;;11.08;81.99
64243;BME280;50573;51.512;5.386;2022-09-21T18:57:35;102394.25;;;10.88;84.82
64243;BME280;50573;51.512;5.386;2022-09-21T19:07:45;102401.63;;;10.66;85.61
64243;BME280;50573;51.512;5.386;2022-09-21T19:18:00;102401.16;;;10.43;88.03
64243;BME280;50573;51.512;5.386;2022-09-21T19:28:30;102397.13;;;10.16;88.87
64243;BME280;50573;51.512;5.386;2022-09-21T19:38:38;102402.63;;;9.91;90.29
64243;BME280;50573;51.512;5.386;2022-09-21T19:48:44;102402.16;;;9.71;91.08
64243;BME280;50573;51.512;5.386;2022-09-21T19:58:48;102401.75;;;9.52;92.63
64243;BME280;50573;51.512;5.386;2022-09-21T20:09:15;102404.66;;;9.31;93.75
64243;BME280;50573;51.512;5.386;2022-09-21T20:19:31;102410.19;;;9.11;95.21
64243;BME280;50573;51.512;5.386;2022-09-21T20:29:38;102417.53;;;8.96;96.95
64243;BME280;50573;51.512;5.386;2022-09-21T20:39:47;102403.34;;;8.80;97.81
64243;BME280;50573;51.512;5.386;2022-09-21T20:49:51;102412.38;;;8.64;98.74
64243;BME280;50573;51.512;5.386;2022-09-21T20:59:54;102403.38;;;8.50;99.88
64243;BME280;50573;51.512;5.386;2022-09-21T21:09:59;102408.13;;;8.36;100.00
64243;BME280;50573;51.512;5.386;2022-09-21T21:20:04;102406.91;;;8.24;100.00
64243;BME280;50573;51.512;5.386;2022-09-21T21:30:09;102405.69;;;8.12;100.00
64243;BME280;50573;51.512;5.386;2022-09-21T21:40:12;102397.59;;;7.99;100.00
64243;BME280;50573;51.512;5.386;2022-09-21T21:50:17;102392.97;;;7.89;100.00
64243;BME280;50573;51.512;5.386;2022-09-21T22:00:20;102392.00;;;7.84;100.00
64243;BME280;50573;51.512;5.386;2022-09-21T22:10:25;102396.72;;;7.70;100.00
64243;BME280;50573;51.512;5.386;2022-09-21T22:20:31;102388.69;;;7.61;100.00
64243;BME280;50573;51.512;5.386;2022-09-21T22:30:35;102391.75;;;7.49;100.00
64243;BME280;50573;51.512;5.386;2022-09-21T22:40:39;102402.66;;;7.42;100.00
64243;BME280;50573;51.512;5.386;2022-09-21T22:50:44;102395.53;;;7.33;100.00
64243;BME280;50573;51.512;5.386;2022-09-21T23:00:47;102390.06;;;7.24;100.00
64243;BME280;50573;51.512;5.386;2022-09-21T23:10:51;102386.13;;;7.08;100.00
64243;BME280;50573;51.512;5.386;2022-09-21T23:20:55;102390.94;;;6.98;100.00
64243;BME280;50573;51.512;5.386;2022-09-21T23:31:02;102378.50;;;6.85;100.00
64243;BME280;50573;51.512;5.386;2022-09-21T23:41:07;102389.31;;;6.76;100.00
64243;BME280;50573;51.512;5.386;2022-09-21T23:51:13;102377.81;;;6.65;100.00
